Largo — PFNC — position and weather

sailwx.info

Track history (hours):
 
Tides and Currents Weather Stations Pressure Air Temp Water Temp Dewpoint Dewpoint Depression Visibility Wind Speed Wind Dir Waves Ship Positions

Largo

Last reported at 2018-Feb-15 13:39 UTC. Time now 2018-Feb-22 07:29 UTC.
Position N 35°58' W 005°34'.

Length 91 m; draft 4.9 m.

Type: Cargo ship. MMSI: 245645000.

Date/timePositionNaut miles runAvg speedWind from/ knotsBaromVisibWave heightAir tempDewpointWater temp
2018-Feb-15 13:39N 35°58' W 005°34'1 8.9
2018-Feb-15 13:30N 35°59' W 005°32'4 8.9
2018-Feb-15 13:00N 35°60' W 005°27'4 8.6
2018-Feb-15 12:31N 36°01' W 005°22'4 8.0
2018-Feb-15 12:00N 36°02' W 005°17'  
2018-Feb-10 19:49N 37°15' W 000°52'4 8.9
2018-Feb-10 19:20N 37°19' W 000°49'3 9.1
2018-Feb-10 19:00N 37°21' W 000°46'5 9.3
2018-Feb-10 18:30N 37°25' W 000°43'5 9.0
2018-Feb-10 18:00N 37°29' W 000°40'5 8.9
2018-Feb-10 17:28N 37°32' W 000°36'4 8.7
2018-Feb-10 16:59N 37°35' W 000°33'4 7.5
2018-Feb-10 16:30N 37°38' W 000°30'4 8.6
2018-Feb-10 16:00N 37°42' W 000°27'  
2018-Feb-06 20:32N 36°32' E 001°19'0 0.0
2018-Feb-06 20:29N 36°32' E 001°19'0 0.0
2018-Feb-06 19:59N 36°32' E 001°19'0 0.0
2018-Feb-06 19:26N 36°32' E 001°19'0 0.0
2018-Feb-06 18:59N 36°32' E 001°19'0 0.0
2018-Feb-06 18:29N 36°32' E 001°19'0 0.0
2018-Feb-06 17:59N 36°32' E 001°19'0 0.0
2018-Feb-06 17:29N 36°32' E 001°19'0 0.0
2018-Feb-06 16:59N 36°32' E 001°19'0 0.0
2018-Feb-06 16:29N 36°32' E 001°19'0 0.0
2018-Feb-06 15:56N 36°32' E 001°19'0 0.0
2018-Feb-06 15:29N 36°32' E 001°19'0 0.0
2018-Feb-06 14:41N 36°32' E 001°19'  
Track history (hours):
 
Tides and Currents Weather Stations Pressure Air Temp Water Temp Dewpoint Dewpoint Depression Visibility Wind Speed Wind Dir Waves Ship Positions

Largo

Last reported at 2018-Feb-15 13:39 UTC. Time now 2018-Feb-22 07:29 UTC.
Position N 35°58' W 005°34'.

Length 91 m; draft 4.9 m.

Type: Cargo ship. MMSI: 245645000.

Date/timePositionNaut miles runAvg speedWind from/ knotsBaromVisibWave heightAir tempDewpointWater temp
2018-Feb-15 13:39N 35°58' W 005°34'1 8.9
2018-Feb-15 13:30N 35°59' W 005°32'4 8.9
2018-Feb-15 13:00N 35°60' W 005°27'4 8.6
2018-Feb-15 12:31N 36°01' W 005°22'4 8.0
2018-Feb-15 12:00N 36°02' W 005°17'  
2018-Feb-10 19:49N 37°15' W 000°52'4 8.9
2018-Feb-10 19:20N 37°19' W 000°49'3 9.1
2018-Feb-10 19:00N 37°21' W 000°46'5 9.3
2018-Feb-10 18:30N 37°25' W 000°43'5 9.0
2018-Feb-10 18:00N 37°29' W 000°40'5 8.9
2018-Feb-10 17:28N 37°32' W 000°36'4 8.7
2018-Feb-10 16:59N 37°35' W 000°33'4 7.5
2018-Feb-10 16:30N 37°38' W 000°30'4 8.6
2018-Feb-10 16:00N 37°42' W 000°27'  
2018-Feb-06 20:32N 36°32' E 001°19'0 0.0
2018-Feb-06 20:29N 36°32' E 001°19'0 0.0
2018-Feb-06 19:59N 36°32' E 001°19'0 0.0
2018-Feb-06 19:26N 36°32' E 001°19'0 0.0
2018-Feb-06 18:59N 36°32' E 001°19'0 0.0
2018-Feb-06 18:29N 36°32' E 001°19'0 0.0
2018-Feb-06 17:59N 36°32' E 001°19'0 0.0
2018-Feb-06 17:29N 36°32' E 001°19'0 0.0
2018-Feb-06 16:59N 36°32' E 001°19'0 0.0
2018-Feb-06 16:29N 36°32' E 001°19'0 0.0
2018-Feb-06 15:56N 36°32' E 001°19'0 0.0
2018-Feb-06 15:29N 36°32' E 001°19'0 0.0
2018-Feb-06 14:41N 36°32' E 001°19'  

Dump ship's entire track history